createdAt,value
2022-09-24T00:01:52.705Z,9.80
2022-09-24T00:04:21.996Z,10.00
2022-09-24T00:06:51.291Z,9.67
2022-09-24T00:09:21.873Z,10.63
2022-09-24T00:11:51.264Z,10.37
2022-09-24T00:14:19.884Z,9.07
2022-09-24T00:16:47.938Z,9.50
2022-09-24T00:19:16.370Z,8.93
2022-09-24T00:21:44.456Z,9.13
2022-09-24T00:24:37.006Z,9.03
2022-09-24T00:27:05.838Z,8.70
2022-09-24T00:29:35.450Z,9.03
2022-09-24T00:32:04.760Z,8.50
2022-09-24T00:34:32.980Z,8.73
2022-09-24T00:37:00.995Z,9.20
2022-09-24T00:39:30.262Z,8.97
2022-09-24T00:41:58.252Z,8.67
2022-09-24T00:44:54.122Z,8.33
2022-09-24T00:47:39.822Z,8.43
2022-09-24T00:50:16.932Z,8.47
2022-09-24T00:52:52.731Z,8.63
2022-09-24T00:55:23.710Z,8.73
2022-09-24T00:57:55.088Z,8.57
2022-09-24T01:00:23.068Z,8.37
2022-09-24T01:02:55.120Z,8.23
2022-09-24T01:05:23.042Z,8.20
2022-09-24T01:07:50.972Z,8.13
2022-09-24T01:10:38.314Z,7.90
2022-09-24T01:13:18.040Z,8.67
2022-09-24T01:15:51.794Z,7.40
2022-09-24T01:18:30.400Z,8.47
2022-09-24T01:21:11.640Z,8.07
2022-09-24T01:24:02.569Z,7.60
2022-09-24T01:26:44.079Z,7.60
2022-09-24T01:29:41.884Z,8.13
2022-09-24T01:32:16.068Z,8.10
2022-09-24T01:34:47.863Z,7.93
2022-09-24T01:37:18.343Z,8.10
2022-09-24T01:39:48.288Z,8.37
2022-09-24T01:42:17.559Z,8.23
2022-09-24T01:44:47.827Z,8.43
2022-09-24T01:47:22.245Z,7.57
2022-09-24T01:49:51.491Z,7.80
2022-09-24T01:52:26.424Z,8.70
2022-09-24T01:54:58.019Z,8.83
2022-09-24T01:57:30.067Z,8.57
2022-09-24T02:00:05.355Z,9.33
2022-09-24T02:02:39.712Z,8.70
2022-09-24T02:05:13.424Z,8.30
2022-09-24T02:07:48.099Z,8.37
2022-09-24T02:10:17.323Z,9.07
2022-09-24T02:12:52.562Z,8.77
2022-09-24T02:15:31.414Z,9.33
2022-09-24T02:18:04.834Z,9.57
2022-09-24T02:20:35.555Z,8.97
2022-09-24T02:23:05.280Z,10.10
2022-09-24T02:25:38.719Z,8.87
2022-09-24T02:28:06.799Z,9.17
2022-09-24T02:30:42.284Z,9.43
2022-09-24T02:33:27.742Z,8.77
2022-09-24T02:35:55.975Z,8.77
2022-09-24T02:38:24.491Z,9.40
2022-09-24T02:40:53.462Z,9.17
2022-09-24T02:43:21.554Z,9.30
2022-09-24T02:45:50.980Z,8.33
2022-09-24T02:48:19.666Z,9.40
2022-09-24T02:50:47.840Z,9.63
2022-09-24T02:53:15.856Z,9.60
2022-09-24T02:55:43.832Z,9.13
2022-09-24T02:58:11.806Z,9.00
2022-09-24T03:00:39.838Z,8.63
2022-09-24T03:03:09.236Z,10.00
2022-09-24T03:05:37.403Z,9.83
2022-09-24T03:08:07.612Z,9.70
2022-09-24T03:10:35.804Z,9.67
2022-09-24T03:13:03.812Z,9.67
2022-09-24T03:15:31.833Z,9.27
2022-09-24T03:17:59.774Z,9.47
2022-09-24T03:20:29.217Z,9.57
2022-09-24T03:22:57.287Z,9.90
2022-09-24T03:25:26.724Z,8.97
2022-09-24T03:27:54.741Z,9.30
2022-09-24T03:30:40.018Z,8.30
2022-09-24T03:33:08.094Z,9.40
2022-09-24T03:35:37.442Z,9.83
2022-09-24T03:38:05.353Z,9.33
2022-09-24T03:40:33.575Z,9.20
2022-09-24T03:43:01.585Z,9.63
2022-09-24T03:45:29.515Z,8.53
2022-09-24T03:47:57.566Z,8.63
2022-09-24T03:50:25.713Z,9.20
2022-09-24T03:52:55.080Z,9.00
2022-09-24T03:55:23.093Z,9.07
2022-09-24T03:57:51.157Z,9.90
2022-09-24T04:00:19.269Z,9.27
2022-09-24T04:02:47.546Z,9.37
2022-09-24T04:05:15.672Z,8.87
2022-09-24T04:07:44.161Z,9.73
2022-09-24T04:10:13.826Z,9.03
2022-09-24T04:12:43.626Z,8.87
2022-09-24T04:15:12.201Z,9.00
2022-09-24T04:17:40.133Z,9.40
2022-09-24T04:20:09.130Z,9.73
2022-09-24T04:22:37.097Z,9.80
2022-09-24T04:25:05.544Z,9.97
2022-09-24T04:27:36.148Z,9.27
2022-09-24T04:30:04.077Z,9.00
2022-09-24T04:32:32.424Z,8.87
2022-09-24T04:35:04.154Z,9.20
2022-09-24T04:37:34.986Z,10.00
2022-09-24T04:40:03.420Z,9.90
2022-09-24T04:42:31.529Z,9.47
2022-09-24T04:45:01.071Z,9.73
2022-09-24T04:47:29.188Z,10.20
2022-09-24T04:49:57.196Z,10.50
2022-09-24T04:52:29.701Z,10.00
2022-09-24T04:54:58.090Z,9.50
2022-09-24T04:57:26.560Z,9.30
2022-09-24T04:59:54.650Z,10.00
2022-09-24T05:02:24.353Z,9.67
2022-09-24T05:04:52.356Z,9.37
2022-09-24T05:07:20.340Z,9.73
2022-09-24T05:09:48.300Z,10.67
2022-09-24T05:12:16.320Z,9.60
2022-09-24T05:14:44.304Z,11.77
2022-09-24T05:17:12.268Z,11.07
2022-09-24T05:19:41.612Z,11.43
2022-09-24T05:22:09.563Z,11.03
2022-09-24T05:24:37.625Z,11.20
2022-09-24T05:27:10.669Z,11.63
2022-09-24T05:29:39.895Z,13.80
2022-09-24T05:32:09.836Z,11.07
2022-09-24T05:34:37.813Z,11.10
2022-09-24T05:37:07.175Z,11.53
2022-09-24T05:39:35.175Z,10.77
2022-09-24T05:42:04.263Z,10.83
2022-09-24T05:44:32.495Z,11.53
2022-09-24T05:47:00.694Z,11.10
2022-09-24T05:49:28.623Z,10.93
2022-09-24T05:51:56.899Z,12.03
2022-09-24T05:54:26.425Z,11.30
2022-09-24T05:56:54.593Z,11.30
2022-09-24T05:59:22.591Z,12.30
2022-09-24T06:01:50.626Z,11.37
2022-09-24T06:04:18.738Z,11.73
2022-09-24T06:06:46.724Z,11.93
2022-09-24T06:09:14.795Z,11.87
2022-09-24T06:11:44.441Z,11.90
2022-09-24T06:14:13.086Z,11.77
2022-09-24T06:16:41.161Z,12.63
2022-09-24T06:19:09.198Z,12.00
2022-09-24T06:21:37.216Z,13.47
2022-09-24T06:24:05.466Z,12.07
2022-09-24T06:26:34.189Z,13.20
2022-09-24T06:29:05.258Z,12.17
2022-09-24T06:31:34.684Z,12.83
2022-09-24T06:34:03.837Z,13.70
2022-09-24T06:36:31.836Z,12.87
2022-09-24T06:39:00.166Z,13.97
2022-09-24T06:41:28.122Z,13.67
2022-09-24T06:43:56.694Z,12.47
2022-09-24T06:46:28.429Z,13.93
2022-09-24T06:48:56.580Z,13.30
2022-09-24T06:51:25.500Z,12.40
2022-09-24T06:53:53.609Z,13.30
2022-09-24T06:56:21.595Z,12.33
2022-09-24T06:58:49.552Z,15.37
2022-09-24T07:01:17.629Z,13.93
2022-09-24T07:03:46.991Z,14.17
2022-09-24T07:06:14.911Z,14.53
2022-09-24T07:08:43.213Z,14.40
2022-09-24T07:11:11.176Z,14.13
2022-09-24T07:13:39.103Z,15.10
2022-09-24T07:16:07.437Z,15.20
2022-09-24T07:18:35.473Z,15.00
2022-09-24T07:21:04.843Z,15.20
2022-09-24T07:23:32.813Z,14.50
2022-09-24T07:26:00.776Z,15.53
2022-09-24T07:28:28.754Z,15.57
2022-09-24T07:31:00.533Z,14.97
2022-09-24T07:33:28.731Z,14.77
2022-09-24T07:35:56.665Z,15.57
2022-09-24T07:38:27.040Z,14.60
2022-09-24T07:40:59.106Z,15.33
2022-09-24T07:43:27.995Z,14.73
2022-09-24T07:45:58.035Z,14.40
2022-09-24T07:48:26.076Z,14.90
2022-09-24T07:50:54.057Z,14.37
2022-09-24T07:53:22.454Z,14.77
2022-09-24T07:55:52.690Z,14.10
2022-09-24T07:58:20.757Z,14.60
2022-09-24T08:00:48.674Z,14.70
2022-09-24T08:03:16.598Z,13.87
2022-09-24T08:05:46.288Z,14.73
2022-09-24T08:08:14.957Z,13.53
2022-09-24T08:10:43.607Z,14.80
2022-09-24T08:13:13.165Z,14.00
2022-09-24T08:15:41.356Z,14.83
2022-09-24T08:18:09.675Z,13.20
2022-09-24T08:20:39.538Z,14.33
2022-09-24T08:23:09.993Z,13.17
2022-09-24T08:25:38.109Z,14.33
2022-09-24T08:28:07.321Z,14.47
2022-09-24T08:30:37.359Z,13.90
2022-09-24T08:33:06.805Z,13.97
2022-09-24T08:35:35.281Z,14.27
2022-09-24T08:38:03.599Z,14.93
2022-09-24T08:40:35.357Z,13.47
2022-09-24T08:43:14.827Z,14.40
2022-09-24T08:46:06.877Z,13.80
2022-09-24T08:48:40.109Z,13.27
2022-09-24T08:51:14.277Z,13.90
2022-09-24T08:53:51.331Z,15.03
2022-09-24T08:56:24.929Z,13.17
2022-09-24T08:58:57.811Z,13.63
2022-09-24T09:01:37.192Z,13.90
2022-09-24T09:04:19.952Z,13.73
2022-09-24T09:06:57.126Z,13.40
2022-09-24T09:09:30.521Z,12.60
2022-09-24T09:12:02.750Z,12.23
2022-09-24T09:14:42.274Z,13.30
2022-09-24T09:17:26.002Z,11.97
2022-09-24T09:19:57.585Z,12.13
2022-09-24T09:22:29.359Z,13.07
2022-09-24T09:25:04.554Z,12.60
2022-09-24T09:27:33.057Z,13.20
2022-09-24T09:30:10.415Z,12.63
2022-09-24T09:32:56.201Z,11.37
2022-09-24T09:35:30.180Z,11.73
2022-09-24T09:38:06.575Z,10.77
2022-09-24T09:40:40.761Z,11.60
2022-09-24T09:43:11.280Z,11.50
2022-09-24T09:45:45.399Z,10.90
2022-09-24T09:48:16.594Z,11.00
2022-09-24T09:50:47.919Z,10.03
2022-09-24T09:53:23.515Z,11.00
2022-09-24T09:55:56.488Z,11.57
2022-09-24T09:58:26.565Z,12.50
2022-09-24T10:01:05.222Z,10.57
2022-09-24T10:03:47.496Z,10.07
2022-09-24T10:06:25.196Z,9.87
2022-09-24T10:08:53.472Z,11.10
2022-09-24T10:11:24.029Z,10.60
2022-09-24T10:14:03.140Z,10.13
2022-09-24T10:16:31.316Z,9.70
2022-09-24T10:19:01.373Z,10.03
2022-09-24T10:21:34.497Z,9.20
2022-09-24T10:24:04.844Z,8.97
2022-09-24T10:26:42.288Z,8.67
2022-09-24T10:29:35.000Z,7.83
2022-09-24T10:32:04.534Z,8.10
2022-09-24T10:34:34.249Z,7.80
2022-09-24T10:37:10.180Z,7.10
2022-09-24T10:39:38.920Z,7.40
2022-09-24T10:42:07.871Z,6.73
2022-09-24T10:44:37.911Z,7.13
2022-09-24T10:47:17.536Z,6.93
2022-09-24T10:50:04.048Z,6.33
2022-09-24T10:52:43.903Z,4.70
2022-09-24T10:55:34.668Z,5.23
2022-09-24T10:58:07.439Z,4.53
2022-09-24T11:00:41.423Z,6.57
2022-09-24T11:03:45.152Z,5.93
2022-09-24T11:06:25.503Z,6.03
2022-09-24T11:09:07.887Z,5.73
2022-09-24T11:11:48.869Z,6.13
2022-09-24T11:14:33.572Z,5.40
2022-09-24T11:17:19.659Z,7.10
2022-09-24T11:20:02.071Z,12.40
2022-09-24T11:22:45.464Z,6.07
2022-09-24T11:25:28.187Z,4.60
2022-09-24T11:28:11.467Z,4.17
2022-09-24T11:30:48.813Z,10.13
2022-09-24T11:33:34.603Z,4.90
2022-09-24T11:36:23.495Z,5.10
2022-09-24T11:39:08.508Z,5.63
2022-09-24T11:41:45.959Z,5.80
2022-09-24T11:44:31.471Z,4.40
2022-09-24T11:47:07.330Z,3.50
2022-09-24T11:50:01.594Z,4.50
2022-09-24T11:52:36.903Z,4.70
2022-09-24T11:55:16.414Z,4.30
2022-09-24T11:57:50.294Z,3.50
2022-09-24T12:00:20.701Z,2.83
2022-09-24T12:02:52.989Z,2.63
2022-09-24T12:05:30.457Z,2.63
2022-09-24T12:08:04.474Z,3.03
2022-09-24T12:10:39.482Z,2.50
2022-09-24T12:13:13.867Z,3.50
2022-09-24T12:15:50.248Z,3.07
2022-09-24T12:18:23.923Z,2.90
2022-09-24T12:20:55.622Z,2.80
2022-09-24T12:23:28.214Z,2.57
2022-09-24T12:25:59.555Z,2.30
2022-09-24T12:28:53.022Z,2.57
2022-09-24T12:31:45.152Z,2.77
2022-09-24T12:34:22.983Z,4.17
2022-09-24T12:37:00.859Z,3.13
2022-09-24T12:39:34.458Z,3.30
2022-09-24T12:42:07.791Z,2.97
2022-09-24T12:44:43.250Z,2.83
2022-09-24T12:47:20.786Z,3.03
2022-09-24T12:49:53.006Z,3.03
2022-09-24T12:52:26.999Z,2.60
2022-09-24T12:55:02.762Z,2.60
2022-09-24T12:57:36.567Z,2.57
2022-09-24T13:00:26.773Z,3.20
2022-09-24T13:02:55.056Z,2.60
2022-09-24T13:05:30.517Z,2.60
2022-09-24T13:08:03.462Z,2.57
2022-09-24T13:10:33.038Z,2.37
2022-09-24T13:13:02.769Z,2.50
2022-09-24T13:15:36.678Z,2.60
2022-09-24T13:18:24.292Z,2.50
2022-09-24T13:21:03.539Z,2.60
2022-09-24T13:23:35.372Z,2.53
2022-09-24T13:26:05.911Z,2.60
2022-09-24T13:28:51.355Z,2.80
2022-09-24T13:31:26.791Z,2.57
2022-09-24T13:33:58.232Z,2.83
2022-09-24T13:36:34.685Z,3.03
2022-09-24T13:39:07.335Z,3.57
2022-09-24T13:41:43.192Z,3.70
2022-09-24T13:44:19.892Z,3.10
2022-09-24T13:46:51.247Z,4.03
2022-09-24T13:49:22.390Z,2.60
2022-09-24T13:52:08.994Z,3.00
2022-09-24T13:54:39.833Z,3.23
2022-09-24T13:57:13.624Z,3.93
2022-09-24T13:59:42.997Z,3.50
2022-09-24T14:02:25.644Z,2.93
2022-09-24T14:04:58.552Z,3.10
2022-09-24T14:07:28.563Z,3.50
2022-09-24T14:10:05.509Z,3.10
2022-09-24T14:12:33.693Z,3.03
2022-09-24T14:15:13.977Z,3.30
2022-09-24T14:17:41.988Z,3.63
2022-09-24T14:20:15.723Z,3.90
2022-09-24T14:22:46.612Z,5.47
2022-09-24T14:25:19.940Z,4.50
2022-09-24T14:27:51.060Z,3.63
2022-09-24T14:30:23.105Z,4.03
2022-09-24T14:32:54.592Z,4.00
2022-09-24T14:35:30.035Z,4.20
2022-09-24T14:38:04.322Z,4.23
2022-09-24T14:40:41.791Z,3.30
2022-09-24T14:43:18.766Z,3.43
2022-09-24T14:45:50.063Z,3.57
2022-09-24T14:48:29.459Z,3.53
2022-09-24T14:50:57.952Z,3.47
2022-09-24T14:53:29.108Z,3.33
2022-09-24T14:55:57.821Z,3.67
2022-09-24T14:58:33.547Z,3.80
2022-09-24T15:01:05.783Z,3.80
2022-09-24T15:03:39.740Z,4.50
2022-09-24T15:06:17.703Z,4.00
2022-09-24T15:08:52.606Z,4.13
2022-09-24T15:11:20.675Z,4.13
2022-09-24T15:14:00.151Z,4.00
2022-09-24T15:16:33.871Z,3.60
2022-09-24T15:19:19.542Z,3.87
2022-09-24T15:21:48.841Z,3.53
2022-09-24T15:24:17.199Z,3.80
2022-09-24T15:26:47.367Z,3.77
2022-09-24T15:29:24.871Z,3.93
2022-09-24T15:31:56.231Z,3.70
2022-09-24T15:34:24.268Z,3.77
2022-09-24T15:36:55.753Z,3.40
2022-09-24T15:39:27.346Z,3.40
2022-09-24T15:41:55.611Z,3.23
2022-09-24T15:44:29.727Z,3.50
2022-09-24T15:47:00.639Z,3.13
2022-09-24T15:49:28.704Z,3.20
2022-09-24T15:52:00.636Z,2.97
2022-09-24T15:54:28.949Z,3.30
2022-09-24T15:56:57.077Z,3.20
2022-09-24T15:59:25.021Z,3.30
2022-09-24T16:01:55.959Z,3.50
2022-09-24T16:04:25.753Z,3.73
2022-09-24T16:06:53.772Z,3.93
2022-09-24T16:09:21.888Z,3.90
2022-09-24T16:11:49.906Z,3.90
2022-09-24T16:14:17.875Z,4.03
2022-09-24T16:16:45.865Z,4.70
2022-09-24T16:19:15.037Z,5.23
2022-09-24T16:21:44.389Z,5.70
2022-09-24T16:24:12.322Z,5.40
2022-09-24T16:26:40.378Z,5.97
2022-09-24T16:29:10.434Z,5.10
2022-09-24T16:31:38.875Z,6.20
2022-09-24T16:34:06.881Z,6.47
2022-09-24T16:36:34.917Z,5.93
2022-09-24T16:39:04.614Z,5.40
2022-09-24T16:41:34.565Z,5.73
2022-09-24T16:44:03.053Z,5.63
2022-09-24T16:46:31.161Z,5.20
2022-09-24T16:48:59.194Z,5.00
2022-09-24T16:51:27.201Z,6.53
2022-09-24T16:53:56.511Z,6.87
2022-09-24T16:56:26.474Z,6.10
2022-09-24T16:58:54.660Z,6.83
2022-09-24T17:01:23.953Z,6.63
2022-09-24T17:03:52.526Z,7.33
2022-09-24T17:06:21.312Z,7.30
2022-09-24T17:09:06.985Z,7.00
2022-09-24T17:11:37.446Z,6.63
2022-09-24T17:14:06.976Z,5.80
2022-09-24T17:16:35.696Z,5.07
2022-09-24T17:19:03.805Z,5.07
2022-09-24T17:21:31.956Z,5.93
2022-09-24T17:23:59.910Z,4.63
2022-09-24T17:26:27.879Z,5.00
2022-09-24T17:28:57.488Z,5.43
2022-09-24T17:31:27.556Z,5.00
2022-09-24T17:34:00.281Z,4.80
2022-09-24T17:36:29.534Z,5.00
2022-09-24T17:38:59.347Z,4.83
2022-09-24T17:41:28.713Z,6.60
2022-09-24T17:43:59.526Z,7.13
2022-09-24T17:46:29.233Z,7.73
2022-09-24T17:48:58.499Z,7.23
2022-09-24T17:51:27.912Z,7.50
2022-09-24T17:53:56.589Z,7.97
2022-09-24T17:56:26.500Z,6.53
2022-09-24T17:58:57.267Z,7.30
2022-09-24T18:01:27.809Z,7.60
2022-09-24T18:03:56.879Z,8.30
2022-09-24T18:06:29.288Z,8.13
2022-09-24T18:09:01.490Z,8.17
2022-09-24T18:11:32.351Z,8.27
2022-09-24T18:14:02.686Z,9.60
2022-09-24T18:16:32.863Z,9.27
2022-09-24T18:19:02.578Z,9.93
2022-09-24T18:21:31.061Z,10.60
2022-09-24T18:24:00.556Z,11.87
2022-09-24T18:26:32.460Z,7.53
2022-09-24T18:29:03.957Z,7.03
2022-09-24T18:31:32.553Z,7.13
2022-09-24T18:34:04.026Z,7.00
2022-09-24T18:36:32.889Z,6.83
2022-09-24T18:39:00.960Z,6.73
2022-09-24T18:41:30.616Z,7.10
2022-09-24T18:43:59.682Z,6.00
2022-09-24T18:46:30.812Z,6.63
2022-09-24T18:49:00.350Z,6.80
2022-09-24T18:51:30.334Z,7.13
2022-09-24T18:53:59.983Z,8.63
2022-09-24T18:56:28.447Z,7.60
2022-09-24T18:58:57.402Z,7.50
2022-09-24T19:01:26.109Z,7.70
2022-09-24T19:03:55.963Z,8.07
2022-09-24T19:06:24.102Z,9.13
2022-09-24T19:08:52.055Z,10.63
2022-09-24T19:11:20.619Z,12.53
2022-09-24T19:13:50.811Z,19.20
2022-09-24T19:16:20.289Z,11.77
2022-09-24T19:18:48.566Z,9.53
2022-09-24T19:21:18.068Z,9.37
2022-09-24T19:23:47.769Z,9.57
2022-09-24T19:26:18.045Z,9.40
2022-09-24T19:28:46.751Z,9.17
2022-09-24T19:31:16.534Z,9.20
2022-09-24T19:33:45.137Z,9.07
2022-09-24T19:36:13.329Z,9.53
2022-09-24T19:38:42.712Z,10.87
2022-09-24T19:41:14.170Z,12.13
2022-09-24T19:43:44.073Z,11.53
2022-09-24T19:46:14.653Z,13.77
2022-09-24T19:48:44.911Z,15.40
2022-09-24T19:51:15.150Z,17.87
2022-09-24T19:53:46.062Z,19.00
2022-09-24T19:56:14.277Z,16.90
2022-09-24T19:58:42.393Z,17.80
2022-09-24T20:01:16.826Z,17.57
2022-09-24T20:03:45.750Z,17.33
2022-09-24T20:06:15.738Z,15.33
2022-09-24T20:08:45.085Z,15.77
2022-09-24T20:11:18.189Z,12.70
2022-09-24T20:13:47.224Z,11.73
2022-09-24T20:16:19.350Z,9.40
2022-09-24T20:18:47.864Z,9.53
2022-09-24T20:21:18.389Z,8.90
2022-09-24T20:23:48.984Z,9.17
2022-09-24T20:26:35.396Z,8.37
2022-09-24T20:29:04.217Z,7.47
2022-09-24T20:31:33.367Z,7.40
2022-09-24T20:34:01.362Z,7.30
2022-09-24T20:36:29.949Z,7.67
2022-09-24T20:39:00.074Z,6.67
2022-09-24T20:41:28.014Z,6.77
2022-09-24T20:43:56.492Z,6.27
2022-09-24T20:46:25.874Z,6.73
2022-09-24T20:48:54.849Z,6.70
2022-09-24T20:51:23.040Z,6.77
2022-09-24T20:53:52.417Z,5.73
2022-09-24T20:56:22.232Z,6.50
2022-09-24T20:58:51.417Z,6.30
2022-09-24T21:01:20.457Z,5.93
2022-09-24T21:03:49.933Z,6.67
2022-09-24T21:06:19.361Z,7.10
2022-09-24T21:08:47.905Z,7.23
2022-09-24T21:11:19.083Z,6.90
2022-09-24T21:13:51.647Z,6.70
2022-09-24T21:16:21.143Z,6.60
2022-09-24T21:18:50.866Z,6.50
2022-09-24T21:21:20.311Z,6.40
2022-09-24T21:23:50.531Z,6.27
2022-09-24T21:26:20.934Z,5.70
2022-09-24T21:28:53.087Z,5.70
2022-09-24T21:31:24.540Z,5.73
2022-09-24T21:33:53.955Z,6.73
2022-09-24T21:36:24.318Z,6.30
2022-09-24T21:38:55.056Z,5.70
2022-09-24T21:41:23.375Z,5.67
2022-09-24T21:43:53.544Z,5.70
2022-09-24T21:46:21.679Z,5.60
2022-09-24T21:48:51.285Z,6.00
2022-09-24T21:51:21.299Z,5.93
2022-09-24T21:53:49.818Z,6.07
2022-09-24T21:56:19.315Z,6.07
2022-09-24T21:58:47.624Z,6.23
2022-09-24T22:01:18.778Z,5.70
2022-09-24T22:03:46.883Z,5.87
2022-09-24T22:06:15.491Z,6.23
2022-09-24T22:08:46.423Z,5.90
2022-09-24T22:11:15.495Z,6.03
2022-09-24T22:13:43.702Z,5.47
2022-09-24T22:16:12.651Z,5.67
2022-09-24T22:18:41.946Z,5.83
2022-09-24T22:21:11.818Z,6.13
2022-09-24T22:23:40.415Z,5.50
2022-09-24T22:26:09.745Z,6.23
2022-09-24T22:28:38.540Z,6.87
2022-09-24T22:31:09.157Z,7.13
2022-09-24T22:33:55.368Z,7.03
2022-09-24T22:36:25.545Z,6.90
2022-09-24T22:38:54.053Z,6.67
2022-09-24T22:41:21.997Z,7.47
2022-09-24T22:43:49.972Z,7.60
2022-09-24T22:46:18.248Z,8.37
2022-09-24T22:48:47.416Z,8.10
2022-09-24T22:51:15.954Z,8.30
2022-09-24T22:53:45.320Z,9.27
2022-09-24T22:56:14.964Z,8.53
2022-09-24T22:58:45.073Z,9.17
2022-09-24T23:01:15.276Z,10.83
2022-09-24T23:03:44.178Z,14.13
2022-09-24T23:06:12.903Z,18.00
2022-09-24T23:08:42.396Z,20.77
2022-09-24T23:11:13.796Z,20.37
2022-09-24T23:13:43.480Z,16.87
2022-09-24T23:16:14.061Z,15.23
2022-09-24T23:18:44.196Z,15.50
2022-09-24T23:21:14.572Z,15.77
2022-09-24T23:23:43.182Z,14.97
2022-09-24T23:26:16.817Z,13.97
2022-09-24T23:28:46.894Z,13.03
2022-09-24T23:31:16.158Z,13.33
2022-09-24T23:33:44.722Z,13.20
2022-09-24T23:36:14.377Z,13.47
2022-09-24T23:38:43.057Z,12.67
2022-09-24T23:41:14.094Z,12.07
2022-09-24T23:43:42.577Z,12.43
2022-09-24T23:46:11.535Z,12.77
2022-09-24T23:48:39.870Z,11.70
2022-09-24T23:51:09.067Z,10.90
2022-09-24T23:53:37.390Z,11.03
2022-09-24T23:56:06.514Z,10.40
2022-09-24T23:58:36.151Z,11.63
